Palo Alto, Texas
Current Conditions -  °F | °C
As of 11:56 AM on Monday 26 Jan 2015 (Local Time) from KNQI Reporting Station
Broken Clouds Broken Clouds  
Wind Chill: 73°   Ceiling: 25000
Heat Index: 73°   Visibility: 10mi
Dew Point: 39°   Wind: 3mph
Humidity: 29%   Direction: 30°NNE
Pressure: 30.29"   Gusts: NA
Location:  27.6102°N, 97.7383°W
Report Text: KNQI 261756Z 03003KT 10SM FEW050 BKN250 23/04 A3029 RMK AO2 SLP252 T02280039 10228 20056 58001 $
Loading
Personal Weather Stations






























Interactive Weather Map New forecast layout! Learn more

10-Day Weather Forecast

Advertisements
Track Severe Weather on mobile